createdAt,value
2022-08-08T00:00:55.399Z,18.64
2022-08-08T00:03:15.302Z,18.32
2022-08-08T00:06:28.443Z,18.49
2022-08-08T00:09:07.790Z,18.41
2022-08-08T00:11:46.823Z,18.30
2022-08-08T00:14:56.939Z,18.21
2022-08-08T00:18:03.465Z,18.19
2022-08-08T00:20:49.718Z,18.41
2022-08-08T00:23:43.449Z,18.14
2022-08-08T00:26:29.466Z,18.24
2022-08-08T00:29:07.883Z,18.03
2022-08-08T00:32:28.374Z,18.01
2022-08-08T00:35:20.310Z,18.03
2022-08-08T00:38:04.495Z,17.99
2022-08-08T00:41:11.217Z,17.93
2022-08-08T00:44:01.917Z,18.09
2022-08-08T00:46:58.207Z,18.05
2022-08-08T00:49:58.467Z,17.78
2022-08-08T00:52:48.566Z,18.00
2022-08-08T00:55:35.912Z,17.95
2022-08-08T00:58:30.555Z,17.93
2022-08-08T01:01:13.386Z,17.90
2022-08-08T01:04:11.271Z,17.83
2022-08-08T01:06:47.472Z,17.88
2022-08-08T01:09:41.135Z,17.63
2022-08-08T01:12:50.224Z,17.69
2022-08-08T01:15:56.581Z,17.74
2022-08-08T01:18:55.817Z,17.88
2022-08-08T01:22:12.217Z,17.65
2022-08-08T01:24:53.835Z,17.87
2022-08-08T01:28:00.034Z,17.84
2022-08-08T01:30:48.881Z,18.01
2022-08-08T01:34:00.041Z,17.50
2022-08-08T01:36:39.638Z,17.52
2022-08-08T01:39:23.935Z,17.57
2022-08-08T01:42:15.709Z,17.54
2022-08-08T01:45:02.913Z,17.58
2022-08-08T01:48:16.686Z,17.57
2022-08-08T01:51:30.330Z,17.46
2022-08-08T01:55:17.849Z,17.38
2022-08-08T01:57:33.763Z,17.58
2022-08-08T02:00:44.787Z,17.51
2022-08-08T02:03:50.580Z,17.24
2022-08-08T02:06:48.501Z,17.53
2022-08-08T02:10:03.271Z,17.39
2022-08-08T02:12:49.853Z,17.13
2022-08-08T02:15:22.048Z,17.09
2022-08-08T02:18:03.866Z,17.22
2022-08-08T02:21:13.621Z,17.20
2022-08-08T02:24:14.680Z,17.04
2022-08-08T02:27:01.565Z,16.94
2022-08-08T02:30:05.829Z,16.93
2022-08-08T02:33:10.789Z,16.84
2022-08-08T02:36:16.545Z,16.76
2022-08-08T02:39:41.178Z,17.11
2022-08-08T02:42:38.255Z,16.89
2022-08-08T02:45:54.162Z,16.80
2022-08-08T02:48:27.491Z,16.86
2022-08-08T02:51:21.047Z,16.65
2022-08-08T02:54:02.285Z,16.61
2022-08-08T02:56:51.031Z,16.53
2022-08-08T02:59:57.775Z,16.69
2022-08-08T03:02:50.504Z,16.51
2022-08-08T03:05:45.482Z,16.61
2022-08-08T03:08:34.975Z,16.78
2022-08-08T03:12:00.977Z,16.99
2022-08-08T03:15:56.873Z,16.52
2022-08-08T03:17:39.712Z,16.60
2022-08-08T03:20:08.083Z,16.73
2022-08-08T03:22:56.671Z,16.70
2022-08-08T03:25:35.816Z,16.65
2022-08-08T03:28:07.539Z,16.50
2022-08-08T03:30:34.621Z,16.37
2022-08-08T03:33:56.085Z,16.49
2022-08-08T03:36:10.341Z,16.28
2022-08-08T03:38:55.752Z,16.31
2022-08-08T03:42:11.561Z,16.34
2022-08-08T03:44:25.728Z,16.32
2022-08-08T03:46:52.863Z,16.35
2022-08-08T03:49:57.356Z,16.29
2022-08-08T03:52:13.953Z,16.49
2022-08-08T03:55:02.059Z,16.29
2022-08-08T03:58:30.602Z,16.35
2022-08-08T04:00:18.898Z,16.58
2022-08-08T04:03:11.515Z,16.35
2022-08-08T04:05:39.949Z,16.34
2022-08-08T04:08:33.782Z,16.26
2022-08-08T04:11:02.852Z,16.17
2022-08-08T04:14:03.153Z,16.15
2022-08-08T04:16:38.534Z,16.33
2022-08-08T04:19:23.069Z,16.58
2022-08-08T04:21:50.868Z,16.25
2022-08-08T04:24:22.426Z,16.21
2022-08-08T04:26:57.065Z,16.21
2022-08-08T04:29:25.307Z,16.19
2022-08-08T04:31:58.366Z,16.27
2022-08-08T04:34:28.071Z,16.20
2022-08-08T04:36:58.657Z,16.23
2022-08-08T04:40:03.167Z,16.22
2022-08-08T04:42:11.942Z,16.16
2022-08-08T04:44:42.644Z,16.22
2022-08-08T04:47:14.676Z,16.28
2022-08-08T04:50:00.678Z,16.35
2022-08-08T04:52:33.921Z,16.29
2022-08-08T04:55:02.050Z,16.62
2022-08-08T04:57:29.045Z,17.31
2022-08-08T04:59:59.514Z,17.86
2022-08-08T05:02:31.528Z,18.07
2022-08-08T05:04:59.564Z,18.63
2022-08-08T05:07:38.158Z,19.33
2022-08-08T05:10:12.934Z,19.80
2022-08-08T05:13:00.014Z,19.93
2022-08-08T05:16:48.527Z,20.03
2022-08-08T05:18:13.708Z,20.13
2022-08-08T05:20:48.343Z,20.19
2022-08-08T05:23:17.423Z,20.84
2022-08-08T05:25:44.146Z,20.33
2022-08-08T05:28:15.001Z,20.23
2022-08-08T05:30:47.199Z,20.22
2022-08-08T05:33:14.507Z,21.05
2022-08-08T05:35:43.730Z,20.92
2022-08-08T05:38:32.019Z,20.98
2022-08-08T05:40:59.122Z,21.19
2022-08-08T05:43:39.978Z,21.92
2022-08-08T05:46:16.091Z,21.88
2022-08-08T05:48:43.607Z,22.28
2022-08-08T05:51:18.948Z,22.59
2022-08-08T05:53:56.228Z,22.73
2022-08-08T05:56:42.407Z,22.99
2022-08-08T05:59:59.910Z,22.89
2022-08-08T06:02:41.293Z,23.66
2022-08-08T06:05:34.197Z,24.18
2022-08-08T06:08:02.562Z,24.32
2022-08-08T06:10:31.804Z,26.21
2022-08-08T06:13:07.915Z,25.75
2022-08-08T06:15:50.589Z,23.99
2022-08-08T06:18:21.201Z,23.70
2022-08-08T06:20:56.246Z,23.99
2022-08-08T06:23:49.061Z,24.47
2022-08-08T06:26:43.311Z,26.08
2022-08-08T06:29:49.138Z,25.68
2022-08-08T06:32:10.190Z,26.12
2022-08-08T06:34:52.620Z,26.25
2022-08-08T06:37:37.379Z,26.98
2022-08-08T06:40:07.232Z,26.50
2022-08-08T06:42:40.529Z,26.43
2022-08-08T06:45:08.642Z,27.30
2022-08-08T06:47:58.077Z,27.43
2022-08-08T06:50:31.752Z,26.42
2022-08-08T06:53:10.018Z,26.79
2022-08-08T06:55:42.129Z,26.27
2022-08-08T06:58:09.934Z,26.37
2022-08-08T07:00:40.860Z,26.98
2022-08-08T07:03:51.674Z,28.21
2022-08-08T07:06:02.427Z,25.50
2022-08-08T07:08:37.207Z,26.86
2022-08-08T07:11:05.313Z,26.90
2022-08-08T07:14:00.350Z,27.02
2022-08-08T07:16:51.095Z,28.42
2022-08-08T07:19:40.278Z,29.31
2022-08-08T07:22:12.029Z,28.24
2022-08-08T07:24:54.899Z,31.51
2022-08-08T07:27:35.329Z,28.43
2022-08-08T07:30:16.686Z,29.28
2022-08-08T07:32:47.942Z,27.91
2022-08-08T07:35:15.502Z,29.86
2022-08-08T07:37:55.833Z,32.41
2022-08-08T07:40:33.043Z,29.95
2022-08-08T07:43:04.161Z,30.45
2022-08-08T07:46:05.239Z,33.06
2022-08-08T07:48:23.825Z,30.46
2022-08-08T07:50:52.463Z,29.55
2022-08-08T07:54:00.737Z,32.44
2022-08-08T07:56:17.430Z,32.33
2022-08-08T07:59:03.641Z,31.26
2022-08-08T08:02:35.104Z,31.01
2022-08-08T08:04:26.039Z,30.30
2022-08-08T08:06:53.826Z,30.62
2022-08-08T08:09:25.003Z,33.63
2022-08-08T08:11:55.641Z,37.06
2022-08-08T08:14:36.513Z,33.80
2022-08-08T08:17:03.216Z,33.24
2022-08-08T08:19:45.043Z,31.97
2022-08-08T08:22:12.506Z,35.05
2022-08-08T08:24:46.448Z,33.35
2022-08-08T08:27:13.505Z,32.30
2022-08-08T08:29:40.103Z,33.64
2022-08-08T08:32:09.241Z,32.74
2022-08-08T08:34:43.185Z,31.24
2022-08-08T08:37:10.126Z,34.43
2022-08-08T08:40:00.622Z,34.79
2022-08-08T08:42:29.313Z,35.45
2022-08-08T08:45:00.953Z,37.17
2022-08-08T08:47:43.695Z,34.51
2022-08-08T08:50:31.869Z,35.04
2022-08-08T08:53:04.466Z,31.59
2022-08-08T08:55:39.470Z,34.30
2022-08-08T08:58:09.378Z,33.95
2022-08-08T09:01:02.852Z,34.58
2022-08-08T09:03:31.432Z,37.08
2022-08-08T09:06:33.208Z,34.53
2022-08-08T09:09:26.661Z,39.77
2022-08-08T09:12:02.032Z,36.51
2022-08-08T09:14:35.838Z,34.80
2022-08-08T09:17:18.238Z,34.13
2022-08-08T09:22:00.295Z,33.83
2022-08-08T09:22:46.781Z,35.72
2022-08-08T09:25:15.238Z,34.10
2022-08-08T09:27:57.301Z,35.01
2022-08-08T09:30:27.736Z,35.87
2022-08-08T09:33:12.640Z,35.49
2022-08-08T09:35:49.198Z,40.11
2022-08-08T09:38:53.311Z,35.37
2022-08-08T09:42:14.501Z,37.61
2022-08-08T09:44:48.132Z,37.21
2022-08-08T09:48:02.733Z,36.20
2022-08-08T09:50:17.017Z,33.98
2022-08-08T09:52:56.245Z,35.67
2022-08-08T09:56:05.473Z,33.10
2022-08-08T09:58:27.766Z,35.26
2022-08-08T10:01:14.274Z,35.10
2022-08-08T10:03:46.181Z,34.33
2022-08-08T10:06:26.764Z,34.91
2022-08-08T10:08:56.675Z,35.68
2022-08-08T10:12:26.220Z,36.91
2022-08-08T10:14:28.356Z,36.88
2022-08-08T10:16:58.639Z,38.82
2022-08-08T10:19:57.417Z,35.88
2022-08-08T10:22:26.696Z,36.07
2022-08-08T10:25:01.347Z,35.97
2022-08-08T10:27:34.148Z,35.83
2022-08-08T10:30:05.227Z,38.27
2022-08-08T10:32:35.361Z,33.79
2022-08-08T10:35:11.540Z,33.66
2022-08-08T10:37:58.878Z,34.20
2022-08-08T10:40:32.247Z,36.69
2022-08-08T10:43:03.178Z,34.88
2022-08-08T10:45:39.053Z,34.70
2022-08-08T10:48:11.105Z,35.59
2022-08-08T10:50:38.901Z,37.12
2022-08-08T10:53:12.887Z,34.52
2022-08-08T10:55:46.598Z,32.80
2022-08-08T10:58:13.860Z,34.47
2022-08-08T11:00:53.205Z,34.33
2022-08-08T11:04:00.550Z,32.64
2022-08-08T11:06:36.411Z,33.72
2022-08-08T11:09:20.061Z,33.55
2022-08-08T11:12:05.226Z,34.82
2022-08-08T11:14:50.428Z,34.79
2022-08-08T11:17:59.589Z,37.41
2022-08-08T11:20:12.832Z,37.86
2022-08-08T11:22:41.133Z,35.77
2022-08-08T11:25:14.505Z,39.45
2022-08-08T11:27:46.929Z,35.32
2022-08-08T11:30:19.450Z,35.06
2022-08-08T11:32:48.295Z,35.75
2022-08-08T11:35:27.315Z,36.74
2022-08-08T11:38:35.528Z,36.14
2022-08-08T11:40:52.784Z,34.66
2022-08-08T11:43:21.578Z,34.87
2022-08-08T11:46:09.998Z,34.49
2022-08-08T11:48:38.768Z,35.24
2022-08-08T11:51:30.562Z,33.74
2022-08-08T11:53:55.231Z,35.04
2022-08-08T11:56:34.416Z,34.75
2022-08-08T11:59:10.046Z,32.83
2022-08-08T12:01:37.089Z,35.23
2022-08-08T12:04:06.742Z,35.06
2022-08-08T12:06:33.714Z,33.96
2022-08-08T12:09:08.321Z,34.15
2022-08-08T12:11:39.916Z,36.07
2022-08-08T12:14:07.740Z,34.34
2022-08-08T12:16:49.142Z,37.72
2022-08-08T12:19:16.016Z,38.75
2022-08-08T12:22:00.553Z,38.68
2022-08-08T12:24:51.262Z,38.28
2022-08-08T12:27:22.578Z,37.38
2022-08-08T12:29:58.965Z,36.36
2022-08-08T12:32:26.036Z,37.15
2022-08-08T12:35:04.866Z,37.54
2022-08-08T12:37:43.116Z,35.78
2022-08-08T12:40:22.991Z,35.60
2022-08-08T12:42:52.100Z,34.89
2022-08-08T12:45:57.754Z,35.06
2022-08-08T12:48:37.039Z,34.19
2022-08-08T12:51:07.825Z,33.07
2022-08-08T12:53:57.577Z,32.44
2022-08-08T12:56:40.032Z,34.61
2022-08-08T12:59:45.084Z,35.16
2022-08-08T13:02:28.317Z,35.81
2022-08-08T13:05:05.735Z,37.33
2022-08-08T13:08:02.179Z,35.32
2022-08-08T13:10:36.508Z,35.41
2022-08-08T13:13:27.854Z,34.23
2022-08-08T13:15:55.116Z,36.15
2022-08-08T13:18:27.433Z,36.76
2022-08-08T13:20:55.930Z,36.34
2022-08-08T13:23:31.165Z,37.49
2022-08-08T13:26:13.348Z,36.72
2022-08-08T13:28:42.484Z,34.52
2022-08-08T13:31:12.971Z,34.56
2022-08-08T13:33:46.341Z,36.65
2022-08-08T13:36:14.158Z,36.89
2022-08-08T13:38:41.185Z,33.64
2022-08-08T13:41:16.959Z,35.83
2022-08-08T13:43:46.558Z,36.22
2022-08-08T13:46:27.152Z,35.87
2022-08-08T13:50:33.564Z,33.75
2022-08-08T13:52:04.318Z,31.91
2022-08-08T13:54:33.431Z,31.51
2022-08-08T13:57:12.574Z,30.37
2022-08-08T13:59:48.267Z,30.44
2022-08-08T14:02:30.946Z,30.35
2022-08-08T14:05:09.137Z,30.16
2022-08-08T14:07:49.828Z,29.71
2022-08-08T14:10:33.277Z,29.63
2022-08-08T14:13:09.978Z,29.60
2022-08-08T14:16:04.428Z,29.59
2022-08-08T14:18:35.906Z,29.59
2022-08-08T14:21:20.855Z,29.48
2022-08-08T14:24:04.215Z,29.60
2022-08-08T14:26:43.081Z,29.66
2022-08-08T14:29:28.436Z,29.88
2022-08-08T14:32:09.478Z,30.09
2022-08-08T14:34:42.136Z,30.31
2022-08-08T14:37:12.663Z,30.39
2022-08-08T14:40:05.389Z,30.20
2022-08-08T14:42:55.113Z,29.58
2022-08-08T14:45:46.934Z,29.62
2022-08-08T14:48:17.663Z,29.95
2022-08-08T14:51:04.444Z,30.00
2022-08-08T14:53:56.762Z,29.80
2022-08-08T14:56:24.813Z,29.58
2022-08-08T14:58:52.764Z,29.55
2022-08-08T15:01:37.246Z,29.81
2022-08-08T15:04:09.605Z,29.60
2022-08-08T15:06:37.407Z,29.63
2022-08-08T15:09:06.854Z,29.61
2022-08-08T15:11:43.013Z,29.58
2022-08-08T15:14:14.529Z,30.03
2022-08-08T15:16:44.179Z,29.76
2022-08-08T15:19:11.278Z,29.90
2022-08-08T15:21:43.021Z,29.83
2022-08-08T15:24:13.716Z,29.54
2022-08-08T15:26:41.941Z,29.74
2022-08-08T15:29:08.642Z,29.52
2022-08-08T15:32:03.492Z,29.52
2022-08-08T15:34:30.070Z,29.85
2022-08-08T15:37:01.852Z,29.91
2022-08-08T15:39:31.611Z,29.47
2022-08-08T15:42:06.833Z,29.74
2022-08-08T15:44:37.500Z,29.89
2022-08-08T15:47:07.234Z,30.02
2022-08-08T15:49:44.266Z,30.04
2022-08-08T15:52:12.900Z,30.25
2022-08-08T15:54:41.525Z,29.91
2022-08-08T15:57:09.566Z,30.01
2022-08-08T16:00:05.837Z,29.98
2022-08-08T16:02:28.849Z,29.74
2022-08-08T16:04:59.161Z,29.60
2022-08-08T16:07:50.924Z,29.54
2022-08-08T16:13:12.267Z,29.65
2022-08-08T16:13:28.476Z,29.53
2022-08-08T16:15:58.861Z,29.53
2022-08-08T16:18:27.862Z,29.69
2022-08-08T16:21:00.201Z,29.66
2022-08-08T16:23:31.751Z,29.60
2022-08-08T16:26:04.348Z,29.42
2022-08-08T16:28:35.165Z,29.32
2022-08-08T16:31:03.333Z,29.13
2022-08-08T16:33:38.134Z,29.18
2022-08-08T16:36:05.824Z,29.08
2022-08-08T16:38:44.350Z,29.14
2022-08-08T16:41:20.649Z,29.41
2022-08-08T16:43:51.177Z,29.35
2022-08-08T16:46:39.004Z,29.20
2022-08-08T16:49:08.820Z,29.14
2022-08-08T16:54:59.749Z,28.80
2022-08-08T16:55:13.975Z,29.03
2022-08-08T16:57:27.770Z,28.86
2022-08-08T17:00:01.146Z,28.97
2022-08-08T17:02:38.470Z,28.93
2022-08-08T17:05:08.106Z,28.82
2022-08-08T17:07:37.936Z,28.66
2022-08-08T17:10:08.897Z,28.63
2022-08-08T17:12:38.925Z,28.47
2022-08-08T17:15:17.997Z,28.45
2022-08-08T17:18:00.993Z,28.59
2022-08-08T17:20:29.263Z,28.67
2022-08-08T17:23:16.771Z,28.47
2022-08-08T17:25:51.973Z,28.39
2022-08-08T17:28:28.803Z,28.35
2022-08-08T17:31:02.351Z,28.23
2022-08-08T17:34:52.813Z,28.09
2022-08-08T17:36:35.402Z,28.04
2022-08-08T17:39:05.531Z,28.10
2022-08-08T17:41:58.094Z,28.04
2022-08-08T17:44:26.806Z,27.98
2022-08-08T17:46:56.868Z,27.96
2022-08-08T17:49:28.610Z,27.89
2022-08-08T17:52:05.560Z,27.91
2022-08-08T17:54:33.686Z,27.76
2022-08-08T17:57:01.200Z,27.73
2022-08-08T17:59:30.600Z,27.60
2022-08-08T18:02:04.533Z,27.55
2022-08-08T18:04:38.530Z,27.56
2022-08-08T18:08:03.651Z,27.57
2022-08-08T18:10:04.775Z,27.45
2022-08-08T18:12:38.260Z,27.52
2022-08-08T18:15:07.466Z,27.39
2022-08-08T18:18:27.469Z,27.21
2022-08-08T18:20:42.844Z,27.15
2022-08-08T18:23:12.490Z,26.98
2022-08-08T18:25:41.645Z,26.94
2022-08-08T18:28:13.560Z,26.95
2022-08-08T18:30:42.820Z,26.80
2022-08-08T18:33:36.798Z,26.76
2022-08-08T18:36:03.130Z,26.65
2022-08-08T18:38:31.034Z,26.54
2022-08-08T18:40:59.158Z,26.48
2022-08-08T18:43:37.723Z,26.41
2022-08-08T18:46:55.416Z,26.37
2022-08-08T18:48:56.249Z,26.23
2022-08-08T18:51:48.491Z,26.18
2022-08-08T18:54:21.872Z,26.10
2022-08-08T18:56:49.994Z,26.02
2022-08-08T18:59:17.047Z,25.97
2022-08-08T19:02:26.572Z,25.91
2022-08-08T19:04:31.080Z,25.85
2022-08-08T19:06:57.740Z,25.70
2022-08-08T19:09:48.331Z,25.69
2022-08-08T19:12:13.578Z,25.57
2022-08-08T19:14:40.268Z,25.56
2022-08-08T19:17:10.650Z,25.49
2022-08-08T19:19:37.939Z,25.42
2022-08-08T19:22:11.042Z,25.29
2022-08-08T19:24:48.421Z,25.25
2022-08-08T19:27:57.210Z,25.12
2022-08-08T19:30:13.164Z,25.09
2022-08-08T19:32:51.828Z,25.07
2022-08-08T19:35:19.915Z,24.96
2022-08-08T19:37:57.298Z,24.99
2022-08-08T19:40:30.989Z,24.86
2022-08-08T19:42:59.662Z,24.77
2022-08-08T19:45:58.329Z,24.59
2022-08-08T19:48:29.150Z,24.48
2022-08-08T19:50:59.051Z,24.48
2022-08-08T19:53:51.613Z,24.59
2022-08-08T19:56:13.679Z,24.45
2022-08-08T19:58:40.313Z,24.30
2022-08-08T20:01:17.243Z,24.31
2022-08-08T20:04:00.454Z,24.27
2022-08-08T20:06:30.874Z,24.23
2022-08-08T20:08:58.164Z,24.17
2022-08-08T20:11:24.781Z,24.06
2022-08-08T20:14:13.078Z,24.05
2022-08-08T20:16:40.814Z,23.87
2022-08-08T20:19:08.813Z,23.85
2022-08-08T20:21:37.275Z,23.84
2022-08-08T20:24:07.855Z,23.77
2022-08-08T20:26:35.809Z,23.71
2022-08-08T20:29:06.839Z,23.56
2022-08-08T20:32:07.516Z,23.68
2022-08-08T20:34:28.671Z,23.55
2022-08-08T20:37:03.101Z,23.40
2022-08-08T20:39:39.441Z,23.37
2022-08-08T20:42:09.122Z,23.14
2022-08-08T20:44:37.568Z,23.02
2022-08-08T20:47:05.266Z,23.18
2022-08-08T20:49:46.881Z,23.03
2022-08-08T20:52:13.922Z,23.01
2022-08-08T20:54:42.395Z,23.11
2022-08-08T20:57:18.708Z,23.06
2022-08-08T20:59:46.739Z,22.96
2022-08-08T21:02:15.347Z,22.84
2022-08-08T21:04:47.667Z,22.87
2022-08-08T21:07:17.221Z,22.93
2022-08-08T21:10:07.922Z,22.74
2022-08-08T21:12:44.511Z,22.65
2022-08-08T21:15:16.218Z,22.59
2022-08-08T21:17:43.376Z,22.55
2022-08-08T21:20:11.899Z,22.80
2022-08-08T21:22:38.643Z,22.58
2022-08-08T21:25:10.598Z,22.47
2022-08-08T21:28:09.089Z,22.51
2022-08-08T21:30:26.581Z,22.50
2022-08-08T21:32:53.495Z,22.41
2022-08-08T21:36:17.270Z,22.37
2022-08-08T21:38:16.162Z,22.30
2022-08-08T21:40:56.475Z,22.32
2022-08-08T21:43:34.100Z,22.32
2022-08-08T21:48:05.671Z,22.14
2022-08-08T21:48:57.373Z,21.98
2022-08-08T21:54:18.486Z,22.00
2022-08-08T21:54:35.659Z,21.98
2022-08-08T21:57:08.207Z,22.13
2022-08-08T22:00:01.227Z,21.98
2022-08-08T22:02:24.177Z,22.01
2022-08-08T22:04:52.627Z,21.87
2022-08-08T22:07:19.199Z,21.89
2022-08-08T22:09:46.169Z,21.80
2022-08-08T22:12:17.115Z,21.84
2022-08-08T22:14:49.875Z,21.76
2022-08-08T22:17:18.115Z,21.77
2022-08-08T22:20:10.849Z,21.88
2022-08-08T22:22:38.037Z,21.72
2022-08-08T22:25:12.354Z,21.77
2022-08-08T22:28:03.868Z,21.56
2022-08-08T22:30:38.511Z,21.50
2022-08-08T22:33:09.063Z,21.45
2022-08-08T22:36:04.145Z,21.37
2022-08-08T22:38:37.613Z,21.33
2022-08-08T22:41:16.466Z,21.21
2022-08-08T22:44:02.178Z,21.22
2022-08-08T22:46:32.836Z,21.07
2022-08-08T22:48:59.652Z,21.02
2022-08-08T22:51:29.162Z,21.03
2022-08-08T22:54:30.508Z,21.11
2022-08-08T22:56:42.922Z,20.96
2022-08-08T22:59:14.116Z,20.89
2022-08-08T23:02:02.412Z,20.88
2022-08-08T23:04:32.254Z,20.88
2022-08-08T23:07:02.371Z,20.88
2022-08-08T23:09:30.528Z,20.97
2022-08-08T23:12:27.855Z,20.67
2022-08-08T23:14:56.435Z,20.58
2022-08-08T23:17:30.038Z,20.60
2022-08-08T23:19:56.784Z,20.53
2022-08-08T23:22:23.494Z,20.59
2022-08-08T23:24:50.922Z,20.47
2022-08-08T23:27:39.053Z,20.56
2022-08-08T23:30:09.236Z,20.39
2022-08-08T23:32:36.242Z,20.53
2022-08-08T23:35:12.671Z,20.41
2022-08-08T23:38:03.207Z,20.38
2022-08-08T23:40:30.909Z,20.32
2022-08-08T23:42:57.612Z,20.22
2022-08-08T23:48:59.927Z,20.33
2022-08-08T23:49:05.462Z,20.42
2022-08-08T23:50:58.002Z,20.18
2022-08-08T23:53:55.999Z,20.10
2022-08-08T23:56:12.077Z,20.29
2022-08-08T23:58:38.884Z,20.09
